Terminal Aerodrome Forecast
Issued by NWS

Home | Current Version | Previous Version | Text Only | Print | Product List | Glossary On
Versions: 1 2 3 4 5 6 7 8 9 10 11 12
429
FTUS45 KRIW 060520
TAFRKS
TAF
KRKS 060520Z 0606/0706 25022KT P6SM SCT050
     FM061900 26025G32KT P6SM BKN050
     FM070400 26020KT P6SM BKN060=

USA.gov is the U.S. government's official web portal to all federal, state and local government web resources and services.